Golden Triangle Regional Air, Mississippi
Current Conditions -  °F | °C
As of 5:50 AM on Friday 28 Nov 2014 (Local Time) from KGTR Reporting Station
Clear Clear  
Wind Chill: -3°   Ceiling: Unl
Heat Index: -3°   Visibility: 10mi
Dew Point: -6°   Wind: 0mph
Humidity: 80%   Direction: NA
Pressure: 30.44"   Gusts: NA
Location:  33.455°N, 88.5512°W
Report Text: KGTR 281150Z 00000KT 10SM SKC M03/M06 A3044
Loading
Personal Weather Stations






























Interactive Weather Map New forecast layout! Learn more

10-Day Weather Forecast

Advertisements
Track Severe Weather on mobile